sensor_id;sensor_type;location;lat;lon;timestamp;temperature;humidity
48876;DHT22;34689;51.644;5.618;2022-10-16T00:00:35;13.60;99.90
48876;DHT22;34689;51.644;5.618;2022-10-16T00:03:04;13.70;99.90
48876;DHT22;34689;51.644;5.618;2022-10-16T00:05:30;13.70;99.90
48876;DHT22;34689;51.644;5.618;2022-10-16T00:07:56;13.70;99.90
48876;DHT22;34689;51.644;5.618;2022-10-16T00:10:22;13.70;99.90
48876;DHT22;34689;51.644;5.618;2022-10-16T00:12:47;13.70;99.90
48876;DHT22;34689;51.644;5.618;2022-10-16T00:15:13;13.70;99.90
48876;DHT22;34689;51.644;5.618;2022-10-16T00:17:39;13.70;99.90
48876;DHT22;34689;51.644;5.618;2022-10-16T00:20:05;13.70;99.90
48876;DHT22;34689;51.644;5.618;2022-10-16T00:22:32;13.70;99.90
48876;DHT22;34689;51.644;5.618;2022-10-16T00:24:57;13.70;99.90
48876;DHT22;34689;51.644;5.618;2022-10-16T00:27:23;13.70;99.90
48876;DHT22;34689;51.644;5.618;2022-10-16T00:29:52;13.70;99.90
48876;DHT22;34689;51.644;5.618;2022-10-16T00:32:21;13.70;99.90
48876;DHT22;34689;51.644;5.618;2022-10-16T00:34:46;13.60;99.90
48876;DHT22;34689;51.644;5.618;2022-10-16T00:37:13;13.60;99.90
48876;DHT22;34689;51.644;5.618;2022-10-16T00:39:39;13.60;99.90
48876;DHT22;34689;51.644;5.618;2022-10-16T00:42:09;13.60;99.90
48876;DHT22;34689;51.644;5.618;2022-10-16T00:44:50;13.60;99.90
48876;DHT22;34689;51.644;5.618;2022-10-16T00:47:21;13.60;99.90
48876;DHT22;34689;51.644;5.618;2022-10-16T00:49:50;13.50;99.90
48876;DHT22;34689;51.644;5.618;2022-10-16T00:52:17;13.50;99.90
48876;DHT22;34689;51.644;5.618;2022-10-16T00:54:43;13.50;99.90
48876;DHT22;34689;51.644;5.618;2022-10-16T00:57:11;13.50;99.90
48876;DHT22;34689;51.644;5.618;2022-10-16T00:59:39;13.50;99.90
48876;DHT22;34689;51.644;5.618;2022-10-16T01:02:09;13.50;99.90
48876;DHT22;34689;51.644;5.618;2022-10-16T01:05:01;13.50;99.90
48876;DHT22;34689;51.644;5.618;2022-10-16T01:10:27;13.40;99.90
48876;DHT22;34689;51.644;5.618;2022-10-16T01:13:09;13.40;99.90
48876;DHT22;34689;51.644;5.618;2022-10-16T01:15:47;13.40;99.90
48876;DHT22;34689;51.644;5.618;2022-10-16T01:18:46;13.40;99.90
48876;DHT22;34689;51.644;5.618;2022-10-16T01:21:29;13.40;99.90
48876;DHT22;34689;51.644;5.618;2022-10-16T01:26:40;13.40;99.90
48876;DHT22;34689;51.644;5.618;2022-10-16T01:29:26;13.40;99.90
48876;DHT22;34689;51.644;5.618;2022-10-16T01:35:01;13.40;99.90
48876;DHT22;34689;51.644;5.618;2022-10-16T01:37:36;13.40;99.90
48876;DHT22;34689;51.644;5.618;2022-10-16T01:40:07;13.40;99.90
48876;DHT22;34689;51.644;5.618;2022-10-16T01:42:41;13.40;99.90
48876;DHT22;34689;51.644;5.618;2022-10-16T01:45:10;13.40;99.90
48876;DHT22;34689;51.644;5.618;2022-10-16T01:47:39;13.40;99.90
48876;DHT22;34689;51.644;5.618;2022-10-16T01:50:06;13.40;99.90
48876;DHT22;34689;51.644;5.618;2022-10-16T01:52:35;13.40;99.90
48876;DHT22;34689;51.644;5.618;2022-10-16T01:55:04;13.40;99.90
48876;DHT22;34689;51.644;5.618;2022-10-16T01:57:33;13.40;99.90
48876;DHT22;34689;51.644;5.618;2022-10-16T02:00:06;13.40;99.90
48876;DHT22;34689;51.644;5.618;2022-10-16T02:02:32;13.40;99.90
48876;DHT22;34689;51.644;5.618;2022-10-16T02:05:15;13.40;99.90
48876;DHT22;34689;51.644;5.618;2022-10-16T02:07:41;13.40;99.90
48876;DHT22;34689;51.644;5.618;2022-10-16T02:10:08;13.40;99.90
48876;DHT22;34689;51.644;5.618;2022-10-16T02:12:37;13.40;99.90
48876;DHT22;34689;51.644;5.618;2022-10-16T02:15:05;13.40;99.90
48876;DHT22;34689;51.644;5.618;2022-10-16T02:17:34;13.50;99.90
48876;DHT22;34689;51.644;5.618;2022-10-16T02:20:00;13.40;99.90
48876;DHT22;34689;51.644;5.618;2022-10-16T02:22:30;13.40;99.90
48876;DHT22;34689;51.644;5.618;2022-10-16T02:30:21;13.40;99.90
48876;DHT22;34689;51.644;5.618;2022-10-16T02:32:51;13.40;99.90
48876;DHT22;34689;51.644;5.618;2022-10-16T02:35:21;13.40;99.90
48876;DHT22;34689;51.644;5.618;2022-10-16T02:37:48;13.40;99.90
48876;DHT22;34689;51.644;5.618;2022-10-16T02:40:17;13.40;99.90
48876;DHT22;34689;51.644;5.618;2022-10-16T02:42:43;13.40;99.90
48876;DHT22;34689;51.644;5.618;2022-10-16T02:45:10;13.30;99.90
48876;DHT22;34689;51.644;5.618;2022-10-16T02:47:36;13.30;99.90
48876;DHT22;34689;51.644;5.618;2022-10-16T02:50:02;13.30;99.90
48876;DHT22;34689;51.644;5.618;2022-10-16T02:52:29;13.30;99.90
48876;DHT22;34689;51.644;5.618;2022-10-16T02:54:54;13.30;99.90
48876;DHT22;34689;51.644;5.618;2022-10-16T02:57:20;13.30;99.90
48876;DHT22;34689;51.644;5.618;2022-10-16T02:59:46;13.20;99.90
48876;DHT22;34689;51.644;5.618;2022-10-16T03:02:14;13.20;99.90
48876;DHT22;34689;51.644;5.618;2022-10-16T03:04:42;13.20;99.90
48876;DHT22;34689;51.644;5.618;2022-10-16T03:07:08;13.20;99.90
48876;DHT22;34689;51.644;5.618;2022-10-16T03:09:34;13.20;99.90
48876;DHT22;34689;51.644;5.618;2022-10-16T03:11:59;13.10;99.90
48876;DHT22;34689;51.644;5.618;2022-10-16T03:14:25;13.10;99.90
48876;DHT22;34689;51.644;5.618;2022-10-16T03:16:53;13.10;99.90
48876;DHT22;34689;51.644;5.618;2022-10-16T03:19:19;13.10;99.90
48876;DHT22;34689;51.644;5.618;2022-10-16T03:21:45;13.00;99.90
48876;DHT22;34689;51.644;5.618;2022-10-16T03:24:11;13.10;99.90
48876;DHT22;34689;51.644;5.618;2022-10-16T03:26:39;13.00;99.90
48876;DHT22;34689;51.644;5.618;2022-10-16T03:29:05;13.00;99.90
48876;DHT22;34689;51.644;5.618;2022-10-16T03:31:30;13.00;99.90
48876;DHT22;34689;51.644;5.618;2022-10-16T03:33:56;13.00;99.90
48876;DHT22;34689;51.644;5.618;2022-10-16T03:36:24;13.00;99.90
48876;DHT22;34689;51.644;5.618;2022-10-16T03:38:50;13.00;99.90
48876;DHT22;34689;51.644;5.618;2022-10-16T03:41:16;13.00;99.90
48876;DHT22;34689;51.644;5.618;2022-10-16T03:43:42;13.00;99.90
48876;DHT22;34689;51.644;5.618;2022-10-16T03:46:07;13.00;99.90
48876;DHT22;34689;51.644;5.618;2022-10-16T03:48:33;13.00;99.90
48876;DHT22;34689;51.644;5.618;2022-10-16T03:50:59;13.00;99.90
48876;DHT22;34689;51.644;5.618;2022-10-16T03:53:24;13.00;99.90
48876;DHT22;34689;51.644;5.618;2022-10-16T03:55:50;13.00;99.90
48876;DHT22;34689;51.644;5.618;2022-10-16T03:58:16;13.10;99.90
48876;DHT22;34689;51.644;5.618;2022-10-16T04:00:45;13.00;99.90
48876;DHT22;34689;51.644;5.618;2022-10-16T04:03:12;13.00;99.90
48876;DHT22;34689;51.644;5.618;2022-10-16T04:05:38;13.00;99.90
48876;DHT22;34689;51.644;5.618;2022-10-16T04:08:04;13.00;99.90
48876;DHT22;34689;51.644;5.618;2022-10-16T04:10:30;13.00;99.90
48876;DHT22;34689;51.644;5.618;2022-10-16T04:12:55;13.00;99.90
48876;DHT22;34689;51.644;5.618;2022-10-16T04:15:23;13.00;99.90
48876;DHT22;34689;51.644;5.618;2022-10-16T04:17:49;13.10;99.90
48876;DHT22;34689;51.644;5.618;2022-10-16T04:20:17;13.00;99.90
48876;DHT22;34689;51.644;5.618;2022-10-16T04:22:43;13.00;99.90
48876;DHT22;34689;51.644;5.618;2022-10-16T04:25:09;13.00;99.90
48876;DHT22;34689;51.644;5.618;2022-10-16T04:27:34;13.00;99.90
48876;DHT22;34689;51.644;5.618;2022-10-16T04:30:00;13.00;99.90
48876;DHT22;34689;51.644;5.618;2022-10-16T04:32:26;13.00;99.90
48876;DHT22;34689;51.644;5.618;2022-10-16T04:34:52;13.00;99.90
48876;DHT22;34689;51.644;5.618;2022-10-16T04:37:18;13.00;99.90
48876;DHT22;34689;51.644;5.618;2022-10-16T04:39:44;13.00;99.90
48876;DHT22;34689;51.644;5.618;2022-10-16T04:42:13;13.00;99.90
48876;DHT22;34689;51.644;5.618;2022-10-16T04:44:39;13.00;99.90
48876;DHT22;34689;51.644;5.618;2022-10-16T04:47:05;13.00;99.90
48876;DHT22;34689;51.644;5.618;2022-10-16T04:49:31;13.10;99.90
48876;DHT22;34689;51.644;5.618;2022-10-16T04:51:56;13.00;99.90
48876;DHT22;34689;51.644;5.618;2022-10-16T04:54:22;13.10;99.90
48876;DHT22;34689;51.644;5.618;2022-10-16T04:56:48;13.00;99.90
48876;DHT22;34689;51.644;5.618;2022-10-16T04:59:16;13.00;99.90
48876;DHT22;34689;51.644;5.618;2022-10-16T05:01:42;13.00;99.90
48876;DHT22;34689;51.644;5.618;2022-10-16T05:04:08;13.00;99.90
48876;DHT22;34689;51.644;5.618;2022-10-16T05:06:34;13.10;99.90
48876;DHT22;34689;51.644;5.618;2022-10-16T05:09:00;13.10;99.90
48876;DHT22;34689;51.644;5.618;2022-10-16T05:11:25;13.00;99.90
48876;DHT22;34689;51.644;5.618;2022-10-16T05:13:51;13.10;99.90
48876;DHT22;34689;51.644;5.618;2022-10-16T05:16:19;13.10;99.90
48876;DHT22;34689;51.644;5.618;2022-10-16T05:18:44;13.10;99.90
48876;DHT22;34689;51.644;5.618;2022-10-16T05:21:10;13.00;99.90
48876;DHT22;34689;51.644;5.618;2022-10-16T05:23:36;13.00;99.90
48876;DHT22;34689;51.644;5.618;2022-10-16T05:26:01;13.00;99.90
48876;DHT22;34689;51.644;5.618;2022-10-16T05:28:28;13.00;99.90
48876;DHT22;34689;51.644;5.618;2022-10-16T05:30:54;13.00;99.90
48876;DHT22;34689;51.644;5.618;2022-10-16T05:33:21;13.00;99.90
48876;DHT22;34689;51.644;5.618;2022-10-16T05:35:47;13.00;99.90
48876;DHT22;34689;51.644;5.618;2022-10-16T05:38:12;13.00;99.90
48876;DHT22;34689;51.644;5.618;2022-10-16T05:40:38;13.00;99.90
48876;DHT22;34689;51.644;5.618;2022-10-16T05:43:04;13.00;99.90
48876;DHT22;34689;51.644;5.618;2022-10-16T05:45:32;13.00;99.90
48876;DHT22;34689;51.644;5.618;2022-10-16T05:47:58;13.00;99.90
48876;DHT22;34689;51.644;5.618;2022-10-16T05:50:24;13.00;99.90
48876;DHT22;34689;51.644;5.618;2022-10-16T05:52:50;12.90;99.90
48876;DHT22;34689;51.644;5.618;2022-10-16T05:55:15;12.90;99.90
48876;DHT22;34689;51.644;5.618;2022-10-16T05:57:41;12.90;99.90
48876;DHT22;34689;51.644;5.618;2022-10-16T06:00:07;12.90;99.90
48876;DHT22;34689;51.644;5.618;2022-10-16T06:02:33;13.00;99.90
48876;DHT22;34689;51.644;5.618;2022-10-16T06:04:59;12.90;99.90
48876;DHT22;34689;51.644;5.618;2022-10-16T06:07:26;12.90;99.90
48876;DHT22;34689;51.644;5.618;2022-10-16T06:09:53;12.90;99.90
48876;DHT22;34689;51.644;5.618;2022-10-16T06:12:19;12.90;99.90
48876;DHT22;34689;51.644;5.618;2022-10-16T06:14:45;12.90;99.90
48876;DHT22;34689;51.644;5.618;2022-10-16T06:17:14;12.90;99.90
48876;DHT22;34689;51.644;5.618;2022-10-16T06:19:40;12.90;99.90
48876;DHT22;34689;51.644;5.618;2022-10-16T06:22:06;12.90;99.90
48876;DHT22;34689;51.644;5.618;2022-10-16T06:24:32;12.80;99.90
48876;DHT22;34689;51.644;5.618;2022-10-16T06:26:57;12.90;99.90
48876;DHT22;34689;51.644;5.618;2022-10-16T06:29:23;12.90;99.90
48876;DHT22;34689;51.644;5.618;2022-10-16T06:31:49;12.90;99.90
48876;DHT22;34689;51.644;5.618;2022-10-16T06:34:14;12.90;99.90
48876;DHT22;34689;51.644;5.618;2022-10-16T06:36:40;12.90;99.90
48876;DHT22;34689;51.644;5.618;2022-10-16T06:39:06;12.90;99.90
48876;DHT22;34689;51.644;5.618;2022-10-16T06:41:33;12.90;99.90
48876;DHT22;34689;51.644;5.618;2022-10-16T06:43:59;12.90;99.90
48876;DHT22;34689;51.644;5.618;2022-10-16T06:46:26;12.90;99.90
48876;DHT22;34689;51.644;5.618;2022-10-16T06:48:55;12.90;99.90
48876;DHT22;34689;51.644;5.618;2022-10-16T06:51:22;12.90;99.90
48876;DHT22;34689;51.644;5.618;2022-10-16T06:53:50;12.90;99.90
48876;DHT22;34689;51.644;5.618;2022-10-16T06:56:22;12.90;99.90
48876;DHT22;34689;51.644;5.618;2022-10-16T06:58:49;12.90;99.90
48876;DHT22;34689;51.644;5.618;2022-10-16T07:01:16;12.90;99.90
48876;DHT22;34689;51.644;5.618;2022-10-16T07:03:43;12.90;99.90
48876;DHT22;34689;51.644;5.618;2022-10-16T07:06:13;12.90;99.90
48876;DHT22;34689;51.644;5.618;2022-10-16T07:08:40;12.90;99.90
48876;DHT22;34689;51.644;5.618;2022-10-16T07:11:11;13.00;99.90
48876;DHT22;34689;51.644;5.618;2022-10-16T07:13:39;13.00;99.90
48876;DHT22;34689;51.644;5.618;2022-10-16T07:16:11;13.00;99.90
48876;DHT22;34689;51.644;5.618;2022-10-16T07:18:39;13.10;99.90
48876;DHT22;34689;51.644;5.618;2022-10-16T07:21:14;13.10;99.90
48876;DHT22;34689;51.644;5.618;2022-10-16T07:23:40;13.20;99.90
48876;DHT22;34689;51.644;5.618;2022-10-16T07:26:07;13.20;99.90
48876;DHT22;34689;51.644;5.618;2022-10-16T07:28:33;13.20;99.90
48876;DHT22;34689;51.644;5.618;2022-10-16T07:31:11;13.30;99.90
48876;DHT22;34689;51.644;5.618;2022-10-16T07:33:39;13.40;99.90
48876;DHT22;34689;51.644;5.618;2022-10-16T07:36:07;13.40;99.90
48876;DHT22;34689;51.644;5.618;2022-10-16T07:38:33;13.40;99.90
48876;DHT22;34689;51.644;5.618;2022-10-16T07:41:00;13.50;99.90
48876;DHT22;34689;51.644;5.618;2022-10-16T07:43:26;13.40;99.90
48876;DHT22;34689;51.644;5.618;2022-10-16T07:45:53;13.50;99.90
48876;DHT22;34689;51.644;5.618;2022-10-16T07:48:19;13.50;99.90
48876;DHT22;34689;51.644;5.618;2022-10-16T07:50:45;13.50;99.90
48876;DHT22;34689;51.644;5.618;2022-10-16T07:53:11;13.50;99.90
48876;DHT22;34689;51.644;5.618;2022-10-16T07:55:37;13.60;99.90
48876;DHT22;34689;51.644;5.618;2022-10-16T07:58:03;13.60;99.90
48876;DHT22;34689;51.644;5.618;2022-10-16T08:00:30;13.70;99.90
48876;DHT22;34689;51.644;5.618;2022-10-16T08:02:57;13.70;99.90
48876;DHT22;34689;51.644;5.618;2022-10-16T08:05:29;13.80;99.90
48876;DHT22;34689;51.644;5.618;2022-10-16T08:07:55;13.80;99.90
48876;DHT22;34689;51.644;5.618;2022-10-16T08:10:23;13.90;99.90
48876;DHT22;34689;51.644;5.618;2022-10-16T08:12:50;13.90;99.90
48876;DHT22;34689;51.644;5.618;2022-10-16T08:15:18;13.90;99.90
48876;DHT22;34689;51.644;5.618;2022-10-16T08:17:44;14.00;99.90
48876;DHT22;34689;51.644;5.618;2022-10-16T08:20:11;14.00;99.90
48876;DHT22;34689;51.644;5.618;2022-10-16T08:22:36;14.00;99.90
48876;DHT22;34689;51.644;5.618;2022-10-16T08:25:02;14.00;99.90
48876;DHT22;34689;51.644;5.618;2022-10-16T08:27:34;14.10;99.90
48876;DHT22;34689;51.644;5.618;2022-10-16T08:30:00;14.10;99.90
48876;DHT22;34689;51.644;5.618;2022-10-16T08:32:25;14.10;99.90
48876;DHT22;34689;51.644;5.618;2022-10-16T08:34:51;14.10;99.90
48876;DHT22;34689;51.644;5.618;2022-10-16T08:37:16;14.20;99.90
48876;DHT22;34689;51.644;5.618;2022-10-16T08:39:42;14.20;99.90
48876;DHT22;34689;51.644;5.618;2022-10-16T08:45:17;14.30;99.90
48876;DHT22;34689;51.644;5.618;2022-10-16T08:47:49;14.30;99.90
48876;DHT22;34689;51.644;5.618;2022-10-16T08:50:28;14.40;99.90
48876;DHT22;34689;51.644;5.618;2022-10-16T08:52:54;14.50;99.90
48876;DHT22;34689;51.644;5.618;2022-10-16T08:55:46;14.50;99.90
48876;DHT22;34689;51.644;5.618;2022-10-16T08:58:17;14.50;99.90
48876;DHT22;34689;51.644;5.618;2022-10-16T09:00:46;14.60;99.90
48876;DHT22;34689;51.644;5.618;2022-10-16T09:06:35;14.60;99.90
48876;DHT22;34689;51.644;5.618;2022-10-16T09:22:37;15.00;99.90
48876;DHT22;34689;51.644;5.618;2022-10-16T09:25:11;15.10;99.90
48876;DHT22;34689;51.644;5.618;2022-10-16T09:27:38;15.10;99.90
48876;DHT22;34689;51.644;5.618;2022-10-16T09:30:20;15.20;99.90
48876;DHT22;34689;51.644;5.618;2022-10-16T09:32:49;15.40;99.90
48876;DHT22;34689;51.644;5.618;2022-10-16T09:35:21;15.60;99.90
48876;DHT22;34689;51.644;5.618;2022-10-16T09:37:50;16.10;99.90
48876;DHT22;34689;51.644;5.618;2022-10-16T09:40:31;17.00;99.90
48876;DHT22;34689;51.644;5.618;2022-10-16T09:45:58;21.40;99.90
48876;DHT22;34689;51.644;5.618;2022-10-16T09:48:28;24.00;97.10
48876;DHT22;34689;51.644;5.618;2022-10-16T09:51:02;25.70;95.40
48876;DHT22;34689;51.644;5.618;2022-10-16T09:54:31;27.20;92.80
48876;DHT22;34689;51.644;5.618;2022-10-16T09:56:50;26.80;89.50
48876;DHT22;34689;51.644;5.618;2022-10-16T09:59:19;26.80;91.10
48876;DHT22;34689;51.644;5.618;2022-10-16T10:01:48;27.10;90.40
48876;DHT22;34689;51.644;5.618;2022-10-16T10:04:24;27.20;89.40
48876;DHT22;34689;51.644;5.618;2022-10-16T10:06:55;26.40;90.20
48876;DHT22;34689;51.644;5.618;2022-10-16T10:09:27;25.30;92.10
48876;DHT22;34689;51.644;5.618;2022-10-16T10:11:55;24.50;93.40
48876;DHT22;34689;51.644;5.618;2022-10-16T10:17:09;23.00;96.30
48876;DHT22;34689;51.644;5.618;2022-10-16T10:19:57;22.60;97.00
48876;DHT22;34689;51.644;5.618;2022-10-16T10:22:31;22.00;97.40
48876;DHT22;34689;51.644;5.618;2022-10-16T10:30:37;20.80;99.90
48876;DHT22;34689;51.644;5.618;2022-10-16T10:39:25;20.80;99.50
48876;DHT22;34689;51.644;5.618;2022-10-16T10:47:38;20.30;99.90
48876;DHT22;34689;51.644;5.618;2022-10-16T10:52:58;20.30;99.40
48876;DHT22;34689;51.644;5.618;2022-10-16T10:58:23;20.20;99.50
48876;DHT22;34689;51.644;5.618;2022-10-16T11:01:14;20.20;99.80
48876;DHT22;34689;51.644;5.618;2022-10-16T11:06:40;20.00;99.10
48876;DHT22;34689;51.644;5.618;2022-10-16T11:09:39;20.00;99.20
48876;DHT22;34689;51.644;5.618;2022-10-16T11:14:44;19.90;99.00
48876;DHT22;34689;51.644;5.618;2022-10-16T11:17:23;19.90;99.20
48876;DHT22;34689;51.644;5.618;2022-10-16T11:23:02;19.70;99.50
48876;DHT22;34689;51.644;5.618;2022-10-16T11:25:31;19.60;99.70
48876;DHT22;34689;51.644;5.618;2022-10-16T11:30:51;19.70;99.20
48876;DHT22;34689;51.644;5.618;2022-10-16T11:35:55;19.70;99.60
48876;DHT22;34689;51.644;5.618;2022-10-16T11:38:49;19.80;99.20
48876;DHT22;34689;51.644;5.618;2022-10-16T11:44:20;19.90;99.10
48876;DHT22;34689;51.644;5.618;2022-10-16T11:47:30;19.80;99.10
48876;DHT22;34689;51.644;5.618;2022-10-16T11:55:29;19.40;99.90
48876;DHT22;34689;51.644;5.618;2022-10-16T11:57:58;19.20;99.90
48876;DHT22;34689;51.644;5.618;2022-10-16T12:00:34;19.20;99.00
48876;DHT22;34689;51.644;5.618;2022-10-16T12:06:05;19.20;99.70
48876;DHT22;34689;51.644;5.618;2022-10-16T12:08:34;19.10;99.50
48876;DHT22;34689;51.644;5.618;2022-10-16T12:13:48;18.90;99.90
48876;DHT22;34689;51.644;5.618;2022-10-16T12:18:40;18.90;99.90
48876;DHT22;34689;51.644;5.618;2022-10-16T12:21:07;18.80;99.90
48876;DHT22;34689;51.644;5.618;2022-10-16T12:23:38;18.80;99.90
48876;DHT22;34689;51.644;5.618;2022-10-16T12:26:04;18.90;99.90
48876;DHT22;34689;51.644;5.618;2022-10-16T12:28:31;19.00;99.90
48876;DHT22;34689;51.644;5.618;2022-10-16T12:31:09;19.00;99.90
48876;DHT22;34689;51.644;5.618;2022-10-16T12:33:41;19.00;99.80
48876;DHT22;34689;51.644;5.618;2022-10-16T12:36:26;19.10;99.80
48876;DHT22;34689;51.644;5.618;2022-10-16T12:38:53;19.10;99.80
48876;DHT22;34689;51.644;5.618;2022-10-16T12:41:30;19.20;99.80
48876;DHT22;34689;51.644;5.618;2022-10-16T12:43:57;19.30;99.30
48876;DHT22;34689;51.644;5.618;2022-10-16T12:54:11;19.60;99.20
48876;DHT22;34689;51.644;5.618;2022-10-16T12:56:46;19.70;99.10
48876;DHT22;34689;51.644;5.618;2022-10-16T13:00:09;19.70;99.00
48876;DHT22;34689;51.644;5.618;2022-10-16T13:08:00;19.50;99.20
48876;DHT22;34689;51.644;5.618;2022-10-16T13:10:41;19.40;99.20
48876;DHT22;34689;51.644;5.618;2022-10-16T13:18:23;19.70;99.00
48876;DHT22;34689;51.644;5.618;2022-10-16T13:27:01;19.90;98.10
48876;DHT22;34689;51.644;5.618;2022-10-16T13:29:32;19.90;98.20
48876;DHT22;34689;51.644;5.618;2022-10-16T13:32:00;20.00;98.30
48876;DHT22;34689;51.644;5.618;2022-10-16T13:34:27;19.90;98.30
48876;DHT22;34689;51.644;5.618;2022-10-16T13:36:53;19.90;98.40
48876;DHT22;34689;51.644;5.618;2022-10-16T13:42:04;19.80;98.60
48876;DHT22;34689;51.644;5.618;2022-10-16T13:44:47;19.70;98.60
48876;DHT22;34689;51.644;5.618;2022-10-16T13:47:25;19.60;98.70
48876;DHT22;34689;51.644;5.618;2022-10-16T13:50:12;19.50;99.00
48876;DHT22;34689;51.644;5.618;2022-10-16T13:52:40;19.40;99.10
48876;DHT22;34689;51.644;5.618;2022-10-16T13:55:17;19.30;99.30
48876;DHT22;34689;51.644;5.618;2022-10-16T13:57:46;19.20;99.40
48876;DHT22;34689;51.644;5.618;2022-10-16T14:00:23;19.20;99.60
48876;DHT22;34689;51.644;5.618;2022-10-16T14:03:00;19.10;99.60
48876;DHT22;34689;51.644;5.618;2022-10-16T14:05:30;19.10;99.70
48876;DHT22;34689;51.644;5.618;2022-10-16T14:07:56;19.00;99.80
48876;DHT22;34689;51.644;5.618;2022-10-16T14:10:28;19.00;99.90
48876;DHT22;34689;51.644;5.618;2022-10-16T14:12:59;18.90;99.90
48876;DHT22;34689;51.644;5.618;2022-10-16T14:15:25;18.90;99.40
48876;DHT22;34689;51.644;5.618;2022-10-16T14:17:52;18.90;99.90
48876;DHT22;34689;51.644;5.618;2022-10-16T14:20:22;18.90;99.90
48876;DHT22;34689;51.644;5.618;2022-10-16T14:22:58;18.90;99.90
48876;DHT22;34689;51.644;5.618;2022-10-16T14:25:29;18.90;99.80
48876;DHT22;34689;51.644;5.618;2022-10-16T14:30:56;18.80;99.80
48876;DHT22;34689;51.644;5.618;2022-10-16T14:33:37;18.80;99.90
48876;DHT22;34689;51.644;5.618;2022-10-16T14:38:35;18.70;99.90
48876;DHT22;34689;51.644;5.618;2022-10-16T14:41:01;18.70;99.90
48876;DHT22;34689;51.644;5.618;2022-10-16T14:43:38;18.70;99.90
48876;DHT22;34689;51.644;5.618;2022-10-16T14:46:13;18.60;99.90
48876;DHT22;34689;51.644;5.618;2022-10-16T14:48:45;18.60;99.90
48876;DHT22;34689;51.644;5.618;2022-10-16T14:51:16;18.60;99.90
48876;DHT22;34689;51.644;5.618;2022-10-16T14:53:42;18.50;99.90
48876;DHT22;34689;51.644;5.618;2022-10-16T14:56:09;18.50;99.90
48876;DHT22;34689;51.644;5.618;2022-10-16T14:58:39;18.50;99.90
48876;DHT22;34689;51.644;5.618;2022-10-16T15:01:05;18.50;99.90
48876;DHT22;34689;51.644;5.618;2022-10-16T15:03:33;18.50;99.90
48876;DHT22;34689;51.644;5.618;2022-10-16T15:05:59;18.50;99.90
48876;DHT22;34689;51.644;5.618;2022-10-16T15:08:25;18.50;99.90
48876;DHT22;34689;51.644;5.618;2022-10-16T15:10:51;18.50;99.90
48876;DHT22;34689;51.644;5.618;2022-10-16T15:13:16;18.50;99.90
48876;DHT22;34689;51.644;5.618;2022-10-16T15:15:47;18.50;99.90
48876;DHT22;34689;51.644;5.618;2022-10-16T15:18:14;18.40;99.90
48876;DHT22;34689;51.644;5.618;2022-10-16T15:20:47;18.40;99.90
48876;DHT22;34689;51.644;5.618;2022-10-16T15:23:18;18.40;99.90
48876;DHT22;34689;51.644;5.618;2022-10-16T15:25:46;18.30;99.90
48876;DHT22;34689;51.644;5.618;2022-10-16T15:28:14;18.30;99.90
48876;DHT22;34689;51.644;5.618;2022-10-16T15:30:40;18.30;99.90
48876;DHT22;34689;51.644;5.618;2022-10-16T15:33:11;18.30;99.90
48876;DHT22;34689;51.644;5.618;2022-10-16T15:35:37;18.20;99.90
48876;DHT22;34689;51.644;5.618;2022-10-16T15:38:03;18.30;99.90
48876;DHT22;34689;51.644;5.618;2022-10-16T15:40:29;18.20;99.90
48876;DHT22;34689;51.644;5.618;2022-10-16T15:42:55;18.20;99.90
48876;DHT22;34689;51.644;5.618;2022-10-16T15:45:23;18.20;99.90
48876;DHT22;34689;51.644;5.618;2022-10-16T15:47:49;18.10;99.90
48876;DHT22;34689;51.644;5.618;2022-10-16T15:50:15;18.10;99.90
48876;DHT22;34689;51.644;5.618;2022-10-16T15:52:41;18.10;99.90
48876;DHT22;34689;51.644;5.618;2022-10-16T15:55:12;18.00;99.90
48876;DHT22;34689;51.644;5.618;2022-10-16T15:57:38;18.00;99.90
48876;DHT22;34689;51.644;5.618;2022-10-16T16:00:14;18.00;99.90
48876;DHT22;34689;51.644;5.618;2022-10-16T16:02:41;18.00;99.90
48876;DHT22;34689;51.644;5.618;2022-10-16T16:05:08;17.90;99.90
48876;DHT22;34689;51.644;5.618;2022-10-16T16:07:35;17.90;99.90
48876;DHT22;34689;51.644;5.618;2022-10-16T16:10:02;17.80;99.90
48876;DHT22;34689;51.644;5.618;2022-10-16T16:12:27;17.80;99.90
48876;DHT22;34689;51.644;5.618;2022-10-16T16:14:53;17.70;99.90
48876;DHT22;34689;51.644;5.618;2022-10-16T16:17:19;17.70;99.90
48876;DHT22;34689;51.644;5.618;2022-10-16T16:19:45;17.70;99.90
48876;DHT22;34689;51.644;5.618;2022-10-16T16:22:11;17.70;99.90
48876;DHT22;34689;51.644;5.618;2022-10-16T16:24:37;17.60;99.90
48876;DHT22;34689;51.644;5.618;2022-10-16T16:27:02;17.60;99.90
48876;DHT22;34689;51.644;5.618;2022-10-16T16:29:28;17.60;99.90
48876;DHT22;34689;51.644;5.618;2022-10-16T16:31:54;17.50;99.90
48876;DHT22;34689;51.644;5.618;2022-10-16T16:34:24;17.50;99.90
48876;DHT22;34689;51.644;5.618;2022-10-16T16:36:50;17.50;99.90
48876;DHT22;34689;51.644;5.618;2022-10-16T16:39:16;17.40;99.90
48876;DHT22;34689;51.644;5.618;2022-10-16T16:41:42;17.40;99.90
48876;DHT22;34689;51.644;5.618;2022-10-16T16:44:13;17.40;99.90
48876;DHT22;34689;51.644;5.618;2022-10-16T16:46:39;17.40;99.90
48876;DHT22;34689;51.644;5.618;2022-10-16T16:49:08;17.30;99.90
48876;DHT22;34689;51.644;5.618;2022-10-16T16:51:34;17.30;99.90
48876;DHT22;34689;51.644;5.618;2022-10-16T16:54:00;17.20;99.90
48876;DHT22;34689;51.644;5.618;2022-10-16T16:56:26;17.20;99.90
48876;DHT22;34689;51.644;5.618;2022-10-16T16:58:54;17.30;99.90
48876;DHT22;34689;51.644;5.618;2022-10-16T17:01:21;17.20;99.90
48876;DHT22;34689;51.644;5.618;2022-10-16T17:03:50;17.20;99.90
48876;DHT22;34689;51.644;5.618;2022-10-16T17:06:18;17.20;99.90
48876;DHT22;34689;51.644;5.618;2022-10-16T17:08:44;17.20;99.90
48876;DHT22;34689;51.644;5.618;2022-10-16T17:11:18;17.10;99.90
48876;DHT22;34689;51.644;5.618;2022-10-16T17:13:44;17.10;99.90
48876;DHT22;34689;51.644;5.618;2022-10-16T17:16:10;17.20;99.90
48876;DHT22;34689;51.644;5.618;2022-10-16T17:18:38;17.10;99.90
48876;DHT22;34689;51.644;5.618;2022-10-16T17:21:06;17.10;99.90
48876;DHT22;34689;51.644;5.618;2022-10-16T17:23:33;17.00;99.90
48876;DHT22;34689;51.644;5.618;2022-10-16T17:26:07;17.00;99.90
48876;DHT22;34689;51.644;5.618;2022-10-16T17:28:36;17.10;99.90
48876;DHT22;34689;51.644;5.618;2022-10-16T17:33:34;17.00;99.90
48876;DHT22;34689;51.644;5.618;2022-10-16T17:36:00;17.00;99.90
48876;DHT22;34689;51.644;5.618;2022-10-16T17:38:25;16.90;99.90
48876;DHT22;34689;51.644;5.618;2022-10-16T17:40:51;17.00;99.90
48876;DHT22;34689;51.644;5.618;2022-10-16T17:43:17;16.90;99.90
48876;DHT22;34689;51.644;5.618;2022-10-16T17:45:45;16.90;99.90
48876;DHT22;34689;51.644;5.618;2022-10-16T17:48:11;16.90;99.90
48876;DHT22;34689;51.644;5.618;2022-10-16T17:50:41;16.90;99.90